Time;durP1;ratioP1;P1;durP2;ratioP2;P2;SDS_P1;SDS_P2;PMS_P1;PMS_P2;Temp;Humidity;BMP_temperature;BMP_pressure;BME280_temperature;BME280_humidity;BME280_pressure;Samples;Min_cycle;Max_cycle;Signal;HPM_P1;HPM_P2
2022/04/20 00:01:04;;;;;;;;;24.00;18.50;;;;;14.47;49.90;100717.44;5160506;27;45421;-62
2022/04/20 00:03:29;;;;;;;;;26.50;21.75;;;;;14.53;50.05;100727.34;5160722;27;45561;-63
2022/04/20 00:05:55;;;;;;;;;26.00;23.50;;;;;14.54;49.86;100721.09;5160235;27;45494;-63
2022/04/20 00:08:20;;;;;;;;;29.50;24.50;;;;;14.60;49.74;100722.97;5160580;27;45326;-62
2022/04/20 00:10:45;;;;;;;;;27.75;23.75;;;;;14.46;50.18;100704.88;5160979;27;45243;-65
2022/04/20 00:13:11;;;;;;;;;26.75;25.00;;;;;14.55;50.04;100706.75;5160069;27;45461;-64
2022/04/20 00:15:36;;;;;;;;;32.00;22.75;;;;;14.59;49.98;100719.38;5159196;27;46886;-65
2022/04/20 00:18:02;;;;;;;;;31.00;29.00;;;;;14.59;49.73;100722.06;5166059;27;45638;-62
2022/04/20 00:20:27;;;;;;;;;25.50;24.50;;;;;14.44;49.97;100703.06;5162045;27;45442;-63
2022/04/20 00:22:53;;;;;;;;;29.00;27.50;;;;;14.54;50.14;100716.59;5162242;27;45521;-64
2022/04/20 00:25:18;;;;;;;;;36.00;33.25;;;;;14.46;50.83;100714.72;5141692;27;48334;-64
2022/04/20 00:27:44;;;;;;;;;37.50;33.50;;;;;14.46;50.49;100714.72;5158756;27;45380;-64
2022/04/20 00:30:10;;;;;;;;;44.25;33.00;;;;;14.43;50.78;100718.28;5159017;27;45601;-64
2022/04/20 00:32:36;;;;;;;;;38.50;33.00;;;;;14.31;51.86;100711.00;5166725;27;45399;-64
2022/04/20 00:35:01;;;;;;;;;35.00;29.75;;;;;14.08;51.88;100693.75;5163263;27;45901;-64
2022/04/20 00:37:27;;;;;;;;;31.50;26.75;;;;;14.11;51.96;100716.16;5163805;27;45385;-62
2022/04/20 00:39:52;;;;;;;;;32.00;26.25;;;;;14.00;52.15;100715.13;5159261;27;45399;-64
2022/04/20 00:42:22;;;;;;;;;32.75;27.00;;;;;13.89;52.86;100709.66;5141314;27;45512;-64
2022/04/20 00:44:48;;;;;;;;;31.75;27.75;;;;;13.74;52.38;100678.13;5159695;27;45517;-65
2022/04/20 00:47:15;;;;;;;;;31.75;26.25;;;;;13.93;52.31;100707.91;5159503;27;45341;-65
2022/04/20 00:49:42;;;;;;;;;33.75;31.00;;;;;13.98;52.26;100714.22;5157621;27;45725;-64
2022/04/20 00:52:08;;;;;;;;;34.75;30.00;;;;;13.99;52.22;100705.25;5176852;27;45024;-64
2022/04/20 00:54:33;;;;;;;;;29.50;25.25;;;;;13.87;52.93;100692.59;5169222;27;45460;-64
2022/04/20 00:56:58;;;;;;;;;31.50;29.50;;;;;13.91;53.46;100709.63;5168529;27;45426;-64
2022/04/20 00:59:26;;;;;;;;;36.25;30.25;;;;;13.86;53.00;100706.00;5174584;27;45062;-63
2022/04/20 01:01:52;;;;;;;;;35.75;29.25;;;;;13.68;53.32;100693.25;5173571;27;45104;-65
2022/04/20 01:04:17;;;;;;;;;30.00;29.00;;;;;13.77;52.80;100707.69;5174199;27;45092;-65
2022/04/20 01:06:42;;;;;;;;;39.50;30.00;;;;;13.75;53.17;100701.41;5167804;27;45346;-63
2022/04/20 01:09:09;;;;;;;;;33.00;30.00;;;;;13.81;53.70;100700.59;5173752;27;45084;-64
2022/04/20 01:11:34;;;;;;;;;27.00;25.50;;;;;13.69;53.96;100690.56;5174083;27;45189;-64
2022/04/20 01:14:00;;;;;;;;;39.25;30.25;;;;;13.64;53.35;100689.63;5174055;27;45626;-64
2022/04/20 01:16:25;;;;;;;;;27.25;22.25;;;;;13.68;53.54;100702.22;5173402;27;45052;-64
2022/04/20 01:18:53;;;;;;;;;33.75;30.00;;;;;13.22;53.39;100618.38;5173645;27;45135;-64
2022/04/20 01:21:19;;;;;;;;;35.25;30.25;;;;;13.65;53.96;100688.75;5174065;27;45433;-64
2022/04/20 01:23:44;;;;;;;;;29.50;29.50;;;;;13.73;53.40;100691.53;5171387;27;46258;-64
2022/04/20 01:26:11;;;;;;;;;38.50;31.50;;;;;13.75;52.90;100687.09;5173361;27;45092;-64
2022/04/20 01:28:37;;;;;;;;;32.50;28.50;;;;;13.75;53.31;100689.78;5173620;27;45251;-64
2022/04/20 01:31:03;;;;;;;;;37.00;33.00;;;;;13.77;52.88;100690.69;5153360;27;45227;-64
2022/04/20 01:33:29;;;;;;;;;31.50;29.25;;;;;13.81;53.19;100681.78;5164418;27;45504;-64
2022/04/20 01:35:54;;;;;;;;;41.25;34.00;;;;;13.79;53.36;100681.78;5166472;27;45266;-64
2022/04/20 01:38:19;;;;;;;;;42.25;36.00;;;;;13.77;53.36;100671.88;5169802;27;45441;-63
2022/04/20 01:40:46;;;;;;;;;40.75;35.25;;;;;13.68;53.32;100677.13;5162610;27;45315;-65
2022/04/20 01:43:11;;;;;;;;;44.50;37.50;;;;;13.67;53.62;100686.09;5167269;27;45860;-63
2022/04/20 01:45:37;;;;;;;;;39.75;34.25;;;;;13.61;54.33;100692.25;5164408;27;45314;-63
2022/04/20 01:48:03;;;;;;;;;42.25;36.00;;;;;13.56;54.27;100693.97;5164066;27;45341;-63
2022/04/20 01:50:28;;;;;;;;;46.00;35.75;;;;;13.42;54.15;100673.22;5161991;27;45563;-62
2022/04/20 01:52:53;;;;;;;;;38.25;34.50;;;;;13.48;54.46;100685.84;5159622;27;45380;-65
2022/04/20 01:55:19;;;;;;;;;44.25;35.50;;;;;13.49;54.51;100690.31;5165673;27;45404;-62
2022/04/20 01:57:44;;;;;;;;;41.75;34.75;;;;;13.42;54.28;100681.28;5170688;27;45150;-64
2022/04/20 02:00:10;;;;;;;;;42.75;35.50;;;;;13.45;54.56;100699.22;5173472;27;44834;-66
2022/04/20 02:02:38;;;;;;;;;44.00;34.00;;;;;13.35;54.77;100687.47;5166822;27;45266;-64
2022/04/20 02:05:06;;;;;;;;;40.00;33.25;;;;;13.27;54.77;100662.28;5153541;27;45336;-65
2022/04/20 02:07:31;;;;;;;;;39.00;32.00;;;;;13.46;53.76;100687.59;5157284;27;45532;-65
2022/04/20 02:09:58;;;;;;;;;44.50;34.25;;;;;13.42;53.91;100683.97;5157489;27;45348;-62
2022/04/20 02:12:23;;;;;;;;;46.25;36.25;;;;;13.48;54.39;100701.03;5160499;27;46152;-64
2022/04/20 02:14:48;;;;;;;;;44.25;35.75;;;;;13.52;53.58;100687.69;5160101;27;45169;-63
2022/04/20 02:17:14;;;;;;;;;43.75;33.75;;;;;13.33;54.66;100661.47;5162942;27;45544;-65
2022/04/20 02:19:39;;;;;;;;;47.75;36.00;;;;;13.48;54.15;100680.50;5143255;27;45515;-64
2022/04/20 02:22:05;;;;;;;;;40.50;35.25;;;;;13.40;54.06;100661.59;5162128;27;48622;-65
2022/04/20 02:24:30;;;;;;;;;39.25;33.50;;;;;13.29;54.40;100657.81;5162348;27;45424;-63
2022/04/20 02:26:56;;;;;;;;;41.25;36.25;;;;;13.46;54.13;100674.16;5161839;27;45368;-65
2022/04/20 02:29:21;;;;;;;;;42.50;37.25;;;;;13.40;54.10;100653.53;5172622;27;45029;-65
2022/04/20 02:31:46;;;;;;;;;48.25;39.00;;;;;13.50;54.52;100662.63;5156257;27;45440;-64
2022/04/20 02:34:12;;;;;;;;;43.25;37.00;;;;;13.51;54.63;100658.13;5167279;27;45455;-63
2022/04/20 02:36:37;;;;;;;;;43.75;36.25;;;;;13.49;54.11;100655.44;5161716;27;45298;-64
2022/04/20 02:39:04;;;;;;;;;49.75;36.50;;;;;13.34;54.25;100615.00;5166787;27;45066;-62
2022/04/20 02:41:32;;;;;;;;;50.75;39.75;;;;;13.53;54.12;100659.03;5160761;27;45414;-65
2022/04/20 02:43:57;;;;;;;;;47.00;36.50;;;;;13.46;54.54;100644.66;5156836;27;45472;-64
2022/04/20 02:46:23;;;;;;;;;47.00;36.75;;;;;13.50;54.11;100649.19;5156879;27;45478;-64
2022/04/20 02:48:49;;;;;;;;;50.00;40.75;;;;;13.46;54.78;100647.34;5156662;27;45428;-63
2022/04/20 02:51:15;;;;;;;;;47.75;37.00;;;;;13.43;53.98;100645.53;5156400;27;46314;-64
2022/04/20 02:53:40;;;;;;;;;41.50;34.50;;;;;13.41;54.28;100641.94;5165756;27;45343;-65
2022/04/20 02:56:06;;;;;;;;;49.00;37.00;;;;;13.47;54.60;100645.56;5164301;27;45387;-65
2022/04/20 02:58:31;;;;;;;;;46.75;39.25;;;;;13.39;54.80;100643.66;5160089;27;45495;-63
2022/04/20 03:00:57;;;;;;;;;45.00;37.50;;;;;13.35;54.83;100636.47;5158411;27;46509;-64
2022/04/20 03:03:23;;;;;;;;;46.75;40.50;;;;;13.31;54.68;100634.59;5166731;27;45133;-64
2022/04/20 03:05:48;;;;;;;;;51.25;40.50;;;;;13.38;55.11;100639.19;5162861;27;45354;-64
2022/04/20 03:08:14;;;;;;;;;48.00;39.50;;;;;13.28;54.63;100638.16;5158480;27;45502;-64
2022/04/20 03:10:39;;;;;;;;;53.25;39.75;;;;;13.27;55.04;100636.34;5157698;27;46137;-63
2022/04/20 03:13:05;;;;;;;;;51.50;40.75;;;;;13.25;54.66;100629.16;5169772;27;45445;-64
2022/04/20 03:15:30;;;;;;;;;57.00;43.50;;;;;13.16;54.63;100615.59;5169677;27;45169;-64
2022/04/20 03:17:57;;;;;;;;;53.75;42.50;;;;;13.24;54.82;100619.28;5169041;27;45144;-64
2022/04/20 03:20:23;;;;;;;;;56.75;42.25;;;;;13.04;55.15;100595.78;5136835;27;47117;-64
2022/04/20 03:22:48;;;;;;;;;53.75;41.75;;;;;13.07;54.42;100611.03;5131168;27;45545;-64
2022/04/20 03:25:14;;;;;;;;;47.50;40.00;;;;;13.16;54.78;100629.03;5118244;27;45269;-64
2022/04/20 03:27:39;;;;;;;;;50.25;41.00;;;;;13.16;54.90;100629.91;5118268;27;45299;-64
2022/04/20 03:30:05;;;;;;;;;45.00;36.50;;;;;13.20;55.57;100631.78;5117220;27;45331;-64
2022/04/20 03:32:31;;;;;;;;;50.25;41.25;;;;;13.06;54.63;100606.53;5110877;27;45293;-64
2022/04/20 03:34:57;;;;;;;;;53.25;44.50;;;;;13.19;54.78;100643.38;5128626;27;45263;-64
2022/04/20 03:37:23;;;;;;;;;51.00;41.50;;;;;13.21;55.54;100648.75;5130099;27;45003;-64
2022/04/20 03:39:48;;;;;;;;;51.50;41.75;;;;;13.19;55.09;100656.78;5125225;27;45560;-64
2022/04/20 03:42:14;;;;;;;;;52.75;41.25;;;;;13.11;55.32;100652.19;5115251;27;45312;-64
2022/04/20 03:44:40;;;;;;;;;52.25;44.00;;;;;13.05;55.35;100656.59;5120172;27;45271;-64
2022/04/20 03:47:06;;;;;;;;;50.75;39.50;;;;;12.84;55.63;100630.34;5124920;27;45132;-64
2022/04/20 03:49:31;;;;;;;;;47.25;36.75;;;;;12.65;54.79;100591.63;5116724;27;46734;-62
2022/04/20 03:51:57;;;;;;;;;49.25;40.75;;;;;13.06;56.14;100661.06;5129521;27;45215;-64
2022/04/20 03:54:22;;;;;;;;;50.75;41.00;;;;;13.09;55.33;100655.75;5124675;27;45335;-64
2022/04/20 03:57:03;;;;;;;;;52.50;42.50;;;;;13.13;55.75;100661.16;5119219;27;45431;-65
2022/04/20 03:59:29;;;;;;;;;51.00;40.00;;;;;13.09;55.36;100665.59;5122095;27;46178;-64
2022/04/20 04:01:54;;;;;;;;;54.00;43.00;;;;;13.06;55.42;100663.75;5118795;27;45429;-62
2022/04/20 04:04:20;;;;;;;;;53.75;43.75;;;;;13.11;54.66;100673.66;5119204;27;45354;-65
2022/04/20 04:06:46;;;;;;;;;55.00;42.50;;;;;13.04;55.22;100665.50;5119373;27;45339;-65
2022/04/20 04:09:12;;;;;;;;;54.75;45.25;;;;;13.03;55.46;100665.47;5118521;27;45464;-65
2022/04/20 04:11:38;;;;;;;;;56.00;44.75;;;;;12.84;54.59;100633.03;5119004;27;45349;-64
2022/04/20 04:14:03;;;;;;;;;55.00;43.25;;;;;12.97;55.59;100660.03;5121455;27;45602;-64
2022/04/20 04:16:28;;;;;;;;;56.50;45.50;;;;;12.84;54.76;100643.75;5121681;27;45469;-64
2022/04/20 04:18:54;;;;;;;;;55.25;41.50;;;;;12.97;55.61;100651.97;5122623;27;45287;-63
2022/04/20 04:21:20;;;;;;;;;55.25;45.25;;;;;12.93;54.86;100634.94;5161748;27;45445;-64
2022/04/20 04:23:46;;;;;;;;;54.75;41.75;;;;;13.06;54.80;100649.44;5163225;27;45450;-64
2022/04/20 04:26:11;;;;;;;;;49.00;39.75;;;;;13.04;54.43;100646.75;5163093;27;45222;-64
2022/04/20 04:28:36;;;;;;;;;50.50;39.75;;;;;12.87;54.48;100614.31;5169983;27;45439;-63
2022/04/20 04:31:02;;;;;;;;;58.00;46.25;;;;;13.14;53.83;100662.97;5170430;27;45197;-64
2022/04/20 04:33:27;;;;;;;;;60.25;45.50;;;;;13.10;54.80;100662.03;5172274;27;44982;-64
2022/04/20 04:35:52;;;;;;;;;56.50;43.00;;;;;13.08;55.09;100655.72;5177009;27;44969;-62
2022/04/20 04:38:18;;;;;;;;;51.75;43.25;;;;;13.08;54.43;100658.41;5163500;27;45604;-65
2022/04/20 04:40:43;;;;;;;;;56.50;44.50;;;;;13.11;55.07;100654.88;5162646;27;45483;-64
2022/04/20 04:43:08;;;;;;;;;54.00;43.00;;;;;13.10;54.84;100654.00;5158294;27;45433;-64
2022/04/20 04:48:36;;;;;;;;;54.00;44.50;;;;;13.17;53.48;100663.91;5166935;27;45402;-63
2022/04/20 04:51:02;;;;;;;;;59.50;47.75;;;;;12.99;53.88;100648.44;5162242;27;45300;-64
2022/04/20 04:53:28;;;;;;;;;56.50;43.25;;;;;13.09;53.99;100671.84;5158490;27;45325;-64
2022/04/20 04:55:54;;;;;;;;;61.00;45.75;;;;;12.98;54.03;100652.00;5158759;27;45832;-64
2022/04/20 04:58:19;;;;;;;;;61.25;47.25;;;;;13.13;54.18;100675.47;5158063;27;45670;-64
2022/04/20 05:00:44;;;;;;;;;58.00;46.75;;;;;12.93;53.16;100644.78;5157308;27;45335;-63
2022/04/20 05:03:10;;;;;;;;;55.50;41.00;;;;;13.14;54.14;100671.03;5158248;27;45360;-64
2022/04/20 05:05:35;;;;;;;;;60.50;45.50;;;;;12.68;54.13;100588.09;5158303;27;45602;-64
2022/04/20 05:08:01;;;;;;;;;58.75;46.00;;;;;13.18;53.85;100665.72;5160284;27;46146;-63
2022/04/20 05:10:26;;;;;;;;;57.25;45.75;;;;;12.85;54.17;100608.03;5157373;27;45528;-64
2022/04/20 05:12:52;;;;;;;;;55.25;44.00;;;;;13.24;53.69;100676.53;5160797;27;45935;-64
2022/04/20 05:15:17;;;;;;;;;58.75;46.00;;;;;13.23;53.78;100666.69;5157817;27;45604;-63
2022/04/20 05:17:42;;;;;;;;;55.00;45.00;;;;;13.23;54.16;100673.81;5150786;27;46100;-63
2022/04/20 05:20:08;;;;;;;;;57.25;45.50;;;;;13.27;53.05;100670.31;5156768;27;45465;-64
2022/04/20 05:22:36;;;;;;;;;56.25;45.25;;;;;13.18;53.03;100646.03;5159972;27;45756;-63
2022/04/20 05:25:01;;;;;;;;;63.50;47.50;;;;;13.17;53.50;100647.81;5155893;27;45305;-64
2022/04/20 05:27:26;;;;;;;;;54.75;42.50;;;;;13.33;53.52;100667.75;5172898;27;45251;-65
2022/04/20 05:29:52;;;;;;;;;61.00;46.00;;;;;13.35;53.29;100666.00;5175024;27;50929;-63
2022/04/20 05:32:17;;;;;;;;;58.50;46.25;;;;;13.36;53.39;100669.56;5164775;27;45419;-64
2022/04/20 05:34:42;;;;;;;;;64.50;47.25;;;;;13.37;53.21;100660.66;5157398;27;45424;-63
2022/04/20 05:42:36;;;;;;;;;59.25;46.25;;;;;13.37;53.15;100688.38;5155775;27;45015;-63
2022/04/20 05:45:02;;;;;;;;;62.75;48.25;;;;;13.35;53.07;100687.47;5157858;27;45394;-64
2022/04/20 05:47:28;;;;;;;;;57.75;45.50;;;;;13.33;53.00;100689.22;5163337;27;46122;-64
2022/04/20 05:49:54;;;;;;;;;58.75;46.75;;;;;13.40;53.09;100688.41;5143950;27;45347;-64
2022/04/20 05:52:19;;;;;;;;;60.00;47.50;;;;;13.47;52.46;100689.41;5157556;27;45647;-63
2022/04/20 05:54:45;;;;;;;;;58.25;47.00;;;;;13.44;53.19;100687.56;5157222;27;45265;-64
2022/04/20 05:57:10;;;;;;;;;60.25;45.75;;;;;13.47;52.25;100686.72;5160189;27;46176;-65
2022/04/20 05:59:35;;;;;;;;;55.00;45.00;;;;;13.42;52.02;100659.81;5163582;27;45315;-65
2022/04/20 06:02:01;;;;;;;;;56.75;44.25;;;;;13.39;52.24;100661.56;5168801;27;44944;-65
2022/04/20 06:04:28;;;;;;;;;64.00;49.00;;;;;13.50;53.10;100669.78;5167538;27;45432;-65
2022/04/20 06:06:53;;;;;;;;;73.25;60.50;;;;;13.50;53.00;100665.28;5160549;27;45778;-65
2022/04/20 06:09:19;;;;;;;;;65.00;50.25;;;;;13.32;53.08;100636.44;5160197;27;55778;-64
2022/04/20 06:11:45;;;;;;;;;63.25;48.25;;;;;13.35;53.14;100635.59;5161755;27;45549;-65
2022/04/20 06:14:10;;;;;;;;;59.75;46.50;;;;;13.54;52.38;100666.22;5157712;27;45448;-65
2022/04/20 06:16:36;;;;;;;;;58.25;47.00;;;;;13.57;52.27;100669.84;5157194;27;46118;-65
2022/04/20 06:19:01;;;;;;;;;62.00;48.50;;;;;13.60;52.09;100663.63;5167428;27;45501;-66
2022/04/20 06:21:27;;;;;;;;;62.50;46.75;;;;;13.64;52.90;100669.06;5174659;27;45160;-65
2022/04/20 06:23:52;;;;;;;;;60.25;47.00;;;;;13.58;52.37;100657.34;5174549;27;45279;-63
2022/04/20 06:26:17;;;;;;;;;58.00;45.00;;;;;13.63;51.75;100659.19;5173866;27;45533;-63
2022/04/20 06:28:43;;;;;;;;;63.50;49.25;;;;;13.71;52.02;100672.72;5173557;27;44968;-65
2022/04/20 06:31:08;;;;;;;;;61.75;49.00;;;;;13.35;51.37;100614.13;5172886;27;44992;-65
2022/04/20 06:33:33;;;;;;;;;58.25;45.75;;;;;13.77;52.03;100675.47;5170608;27;47173;-64
2022/04/20 06:36:00;;;;;;;;;63.25;48.50;;;;;13.65;51.98;100627.00;5174412;27;45122;-65
2022/04/20 06:38:26;;;;;;;;;59.25;46.00;;;;;13.94;50.98;100678.38;5168622;27;45050;-64
2022/04/20 06:40:53;;;;;;;;;60.75;47.25;;;;;14.00;51.01;100667.66;5157561;27;45577;-65
2022/04/20 06:43:19;;;;;;;;;60.75;47.00;;;;;14.07;51.02;100668.63;5155986;27;45526;-62
2022/04/20 06:45:45;;;;;;;;;61.00;47.00;;;;;14.11;50.27;100674.97;5156294;27;45376;-65
2022/04/20 06:48:10;;;;;;;;;59.75;46.50;;;;;14.15;50.20;100676.78;5155690;27;45360;-65
2022/04/20 06:50:36;;;;;;;;;55.50;45.50;;;;;14.19;50.37;100673.25;5159272;27;45296;-64
2022/04/20 06:58:38;;;;;;;;;58.25;45.75;;;;;14.27;50.18;100674.25;5155417;27;45299;-66
2022/04/20 07:01:04;;;;;;;;;54.75;44.50;;;;;14.28;48.99;100670.66;5155615;27;45333;-66
2022/04/20 07:03:31;;;;;;;;;51.75;44.00;;;;;13.84;49.39;100593.19;5154730;27;45582;-65
2022/04/20 07:05:57;;;;;;;;;56.25;44.25;;;;;14.30;49.73;100671.56;5155824;27;46079;-66
2022/04/20 07:08:23;;;;;;;;;62.75;46.50;;;;;14.22;49.08;100656.25;5156451;27;45597;-65
2022/04/20 07:10:49;;;;;;;;;53.75;41.75;;;;;14.33;48.95;100665.31;5156047;27;45251;-63
2022/04/20 07:13:16;;;;;;;;;56.50;44.50;;;;;14.44;48.93;100676.19;5159767;27;45502;-65
2022/04/20 07:15:41;;;;;;;;;58.50;44.25;;;;;14.40;49.11;100682.41;5159846;27;45473;-65
2022/04/20 07:18:07;;;;;;;;;50.75;41.75;;;;;14.27;49.02;100663.50;5146460;27;45511;-67
2022/04/20 07:20:32;;;;;;;;;56.00;42.75;;;;;14.28;49.07;100656.31;5155046;27;45471;-65
2022/04/20 07:22:57;;;;;;;;;54.75;45.00;;;;;14.47;48.47;100677.13;5157103;27;45661;-66
2022/04/20 07:25:23;;;;;;;;;58.00;46.25;;;;;14.52;48.87;100680.75;5158549;27;46115;-66
2022/04/20 07:27:48;;;;;;;;;53.00;42.25;;;;;14.51;48.09;100678.94;5155305;27;45703;-65
2022/04/20 07:30:15;;;;;;;;;49.50;40.50;;;;;14.57;48.67;100679.00;5156919;27;45417;-66
2022/04/20 07:32:40;;;;;;;;;54.75;42.25;;;;;14.62;48.45;100686.22;5158801;27;45494;-65
2022/04/20 07:35:06;;;;;;;;;45.00;36.00;;;;;14.46;47.92;100659.19;5138478;27;46419;-65
2022/04/20 07:37:31;;;;;;;;;56.50;45.00;;;;;14.73;47.95;100689.91;5158683;27;45212;-65
2022/04/20 07:39:57;;;;;;;;;63.00;45.50;;;;;14.65;47.31;100668.34;5159192;27;45668;-66
2022/04/20 07:42:23;;;;;;;;;48.25;40.50;;;;;14.77;47.47;100686.38;5159333;27;45345;-65
2022/04/20 07:44:48;;;;;;;;;52.75;42.50;;;;;14.82;47.36;100687.31;5151994;27;45434;-65
2022/04/20 07:47:14;;;;;;;;;56.75;43.75;;;;;14.74;47.25;100660.34;5156063;27;47149;-65
2022/04/20 07:52:23;;;;;;;;;53.75;42.25;;;;;14.92;47.10;100689.16;5158071;27;45516;-66
2022/04/20 07:54:49;;;;;;;;;52.00;42.00;;;;;15.01;46.76;100692.81;5158524;27;45427;-66
2022/04/20 07:57:15;;;;;;;;;46.75;39.25;;;;;15.06;46.63;100688.38;5158490;27;45424;-64
2022/04/20 07:59:41;;;;;;;;;56.50;42.00;;;;;14.76;46.49;100624.50;5158224;27;45398;-65
2022/04/20 08:02:07;;;;;;;;;53.00;44.25;;;;;15.13;46.33;100666.00;5159636;27;45597;-65
2022/04/20 08:04:33;;;;;;;;;49.50;41.00;;;;;15.27;45.68;100674.16;5159232;27;46246;-65
2022/04/20 08:06:58;;;;;;;;;47.50;38.75;;;;;15.43;45.40;100686.81;5162689;27;45460;-64
2022/04/20 08:09:24;;;;;;;;;43.00;35.25;;;;;15.43;45.08;100689.50;5167376;27;45403;-65
2022/04/20 08:11:50;;;;;;;;;47.50;38.00;;;;;15.50;44.97;100682.34;5164476;27;45281;-64
2022/04/20 08:14:16;;;;;;;;;50.50;39.00;;;;;15.62;44.67;100682.44;5162015;27;46003;-63
2022/04/20 08:16:44;;;;;;;;;46.25;36.00;;;;;15.71;44.65;100684.25;5166153;27;45416;-67
2022/04/20 08:19:09;;;;;;;;;40.50;34.25;;;;;15.79;43.65;100671.75;5158716;27;45500;-64
2022/04/20 08:21:34;;;;;;;;;46.25;37.25;;;;;15.83;43.43;100662.78;5158284;27;45297;-64
2022/04/20 08:24:00;;;;;;;;;48.50;40.00;;;;;16.00;43.59;100676.31;5158237;27;46177;-63
2022/04/20 08:26:26;;;;;;;;;37.50;33.00;;;;;16.08;42.56;100673.63;5157727;27;45309;-65
2022/04/20 08:28:51;;;;;;;;;41.50;32.50;;;;;16.18;41.54;100671.84;5158144;27;45541;-65
2022/04/20 08:31:17;;;;;;;;;37.50;32.50;;;;;16.17;42.19;100675.47;5158374;27;45346;-65
2022/04/20 08:33:43;;;;;;;;;37.00;32.50;;;;;16.14;41.91;100648.50;5156938;27;45557;-66
2022/04/20 08:36:11;;;;;;;;;25.75;25.75;;;;;16.43;41.74;100677.28;5156999;27;45783;-64
2022/04/20 08:38:38;;;;;;;;;43.25;36.75;;;;;16.53;41.62;100676.38;5158146;27;45455;-66
2022/04/20 08:41:04;;;;;;;;;34.50;30.25;;;;;16.68;41.24;100681.81;5158181;27;45427;-65
2022/04/20 08:43:31;;;;;;;;;36.25;31.25;;;;;16.78;40.63;100677.31;5157648;27;45699;-65
2022/04/20 08:45:59;;;;;;;;;41.00;34.25;;;;;16.91;40.96;100678.22;5157796;27;45416;-65
2022/04/20 08:48:25;;;;;;;;;41.50;35.75;;;;;17.09;40.56;100682.69;5158164;27;45585;-65
2022/04/20 08:50:53;;;;;;;;;41.00;31.75;;;;;17.25;40.03;100679.06;5158278;27;45199;-65
2022/04/20 08:53:20;;;;;;;;;26.00;25.50;;;;;17.40;39.08;100670.03;5157874;27;45443;-65
2022/04/20 08:55:46;;;;;;;;;24.25;24.25;;;;;17.63;39.16;100679.88;5157321;27;45461;-65
2022/04/20 08:58:12;;;;;;;;;33.50;28.25;;;;;17.75;38.38;100679.84;5157318;27;45386;-64
2022/04/20 09:00:39;;;;;;;;;30.50;26.25;;;;;17.82;38.21;100678.91;5157699;27;45404;-66
2022/04/20 09:03:05;;;;;;;;;28.50;27.00;;;;;17.89;38.40;100676.22;5157343;27;45370;-65
2022/04/20 09:05:33;;;;;;;;;33.75;30.50;;;;;17.93;37.98;100678.88;5157586;27;45488;-67
2022/04/20 09:08:11;;;;;;;;;29.50;29.50;;;;;18.03;37.67;100677.94;5157681;27;45589;-65
2022/04/20 09:10:36;;;;;;;;;24.25;22.00;;;;;17.69;37.23;100607.78;5158000;27;45691;-65
2022/04/20 09:13:10;;;;;;;;;23.00;22.75;;;;;17.43;37.53;100567.41;5157286;27;45537;-68
2022/04/20 09:15:37;;;;;;;;;23.25;18.25;;;;;18.15;36.81;100681.44;5157351;27;45456;-66
2022/04/20 09:18:04;;;;;;;;;39.75;34.00;;;;;18.16;37.25;100669.72;5157498;27;45468;-64
2022/04/20 09:20:32;;;;;;;;;26.25;20.50;;;;;18.32;36.19;100679.53;5157377;27;45533;-65
2022/04/20 09:23:07;;;;;;;;;21.00;18.75;;;;;18.33;36.34;100651.59;5157096;27;45812;-66
2022/04/20 09:25:41;;;;;;;;;24.00;21.00;;;;;18.52;36.18;100676.69;5156616;27;45335;-63
2022/04/20 09:28:07;;;;;;;;;22.50;18.75;;;;;18.55;36.09;100673.97;5157322;27;45305;-65
2022/04/20 09:30:40;;;;;;;;;25.00;19.75;;;;;18.73;35.96;100674.75;5157079;27;45307;-65
2022/04/20 09:33:07;;;;;;;;;25.25;21.25;;;;;18.86;35.84;100673.75;5138523;27;46353;-65
2022/04/20 09:35:47;;;;;;;;;21.75;19.75;;;;;18.97;35.68;100670.94;5156825;27;45600;-66
2022/04/20 09:38:15;;;;;;;;;21.50;21.00;;;;;19.03;35.68;100665.47;5157570;27;45516;-64
2022/04/20 09:40:41;;;;;;;;;20.75;20.50;;;;;19.16;35.53;100671.66;5156954;27;45248;-65
2022/04/20 09:43:09;;;;;;;;;24.00;20.25;;;;;19.12;35.57;100662.69;5156620;27;46117;-65
2022/04/20 09:45:35;;;;;;;;;27.25;24.00;;;;;19.18;35.09;100664.41;5156549;27;45515;-65
2022/04/20 09:51:15;;;;;;;;;20.25;18.00;;;;;19.33;35.25;100656.13;5156777;27;45243;-65
2022/04/20 09:53:42;;;;;;;;;19.25;17.50;;;;;19.31;35.76;100621.84;5156597;27;45514;-65
2022/04/20 09:56:16;;;;;;;;;16.75;16.75;;;;;19.56;35.16;100645.94;5156966;27;45332;-66
2022/04/20 09:58:43;;;;;;;;;25.25;17.00;;;;;19.45;35.47;100646.06;5157358;27;45442;-65
2022/04/20 10:01:24;;;;;;;;;16.75;16.75;;;;;19.47;35.37;100641.53;5158001;27;45365;-65
2022/04/20 10:03:53;;;;;;;;;18.50;17.25;;;;;19.43;35.17;100628.94;5157238;27;46285;-65
2022/04/20 10:06:19;;;;;;;;;18.50;17.25;;;;;19.66;35.06;100650.31;5156078;27;45378;-64
2022/04/20 10:08:44;;;;;;;;;15.25;15.00;;;;;19.70;34.80;100636.72;5156323;27;45478;-63
2022/04/20 10:11:13;;;;;;;;;21.75;21.25;;;;;19.83;35.02;100637.50;5156076;27;45474;-65
2022/04/20 10:13:39;;;;;;;;;25.50;20.50;;;;;19.94;34.90;100645.47;5156250;27;46171;-65
2022/04/20 10:16:07;;;;;;;;;20.00;14.00;;;;;20.02;34.42;100648.06;5137807;27;45464;-64
2022/04/20 10:18:38;;;;;;;;;18.75;16.50;;;;;19.92;34.58;100609.34;5149747;27;45488;-64
2022/04/20 10:21:06;;;;;;;;;21.25;18.75;;;;;20.10;34.57;100638.00;5155937;27;45580;-65
2022/04/20 10:23:34;;;;;;;;;22.50;18.50;;;;;19.72;34.55;100576.19;5156102;27;46104;-66
2022/04/20 10:26:01;;;;;;;;;14.25;14.25;;;;;20.03;35.09;100634.50;5156568;27;45550;-64
2022/04/20 10:28:30;;;;;;;;;15.25;11.75;;;;;20.13;35.09;100627.13;5156289;27;45284;-66
2022/04/20 10:31:19;;;;;;;;;12.75;11.25;;;;;20.21;34.65;100632.41;5155882;27;45420;-65
2022/04/20 10:33:45;;;;;;;;;14.50;14.00;;;;;20.11;34.61;100598.22;5155202;27;46051;-65
2022/04/20 10:36:15;;;;;;;;;13.75;12.75;;;;;20.22;34.84;100610.69;5155166;27;45389;-65
2022/04/20 10:38:44;;;;;;;;;17.00;14.00;;;;;20.25;34.36;100624.22;5155989;27;45453;-66
2022/04/20 10:41:10;;;;;;;;;15.25;13.50;;;;;20.03;34.77;100582.97;5156246;27;45572;-65
2022/04/20 10:43:42;;;;;;;;;14.25;13.50;;;;;20.25;34.92;100616.06;5155841;27;46617;-65
2022/04/20 10:46:08;;;;;;;;;12.25;12.25;;;;;20.29;35.22;100613.31;5155795;27;45398;-66
2022/04/20 10:49:04;;;;;;;;;19.75;12.25;;;;;20.31;34.68;100609.66;5156095;27;45437;-65
2022/04/20 10:51:30;;;;;;;;;13.50;12.75;;;;;20.28;34.60;100611.50;5156087;27;45388;-67
2022/04/20 10:54:26;;;;;;;;;14.25;11.25;;;;;20.23;34.69;100608.88;5155887;27;45404;-67
2022/04/20 10:57:01;;;;;;;;;16.00;14.25;;;;;20.28;34.77;100600.66;5156713;27;45382;-67
2022/04/20 10:59:28;;;;;;;;;11.00;9.75;;;;;20.32;34.70;100592.44;5159393;27;45529;-64
2022/04/20 11:02:02;;;;;;;;;9.25;9.25;;;;;20.35;34.61;100592.41;5159610;27;45233;-65
2022/04/20 11:04:32;;;;;;;;;18.50;15.00;;;;;20.28;34.86;100578.94;5159169;27;45455;-65
2022/04/20 11:07:01;;;;;;;;;11.25;10.25;;;;;20.37;34.63;100600.50;5159408;27;45567;-65
2022/04/20 11:09:42;;;;;;;;;10.00;10.00;;;;;20.37;34.36;100589.66;5159202;27;45367;-66
2022/04/20 11:21:06;;;;;;;;;8.50;8.50;;;;;20.47;34.16;100572.28;5159442;27;45583;-66
2022/04/20 11:23:50;;;;;;;;;9.50;8.00;;;;;20.48;33.66;100574.09;5159398;27;45582;-65
2022/04/20 11:26:28;;;;;;;;;13.00;10.50;;;;;20.54;33.59;100574.00;5158624;27;45396;-66
2022/04/20 11:28:59;;;;;;;;;9.33;7.00;;;;;20.43;32.87;100538.91;5159272;27;45530;-65
2022/04/20 11:31:24;;;;;;;;;3.00;3.00;;;;;20.59;32.04;100555.81;5159713;27;45508;-64
2022/04/20 11:33:52;;;;;;;;;6.50;6.50;;;;;20.74;31.85;100578.19;5159712;27;45440;-67
2022/04/20 11:36:18;;;;;;;;;4.33;3.33;;;;;20.74;31.72;100570.03;5159217;27;46138;-64